Time;durP1;ratioP1;P1;durP2;ratioP2;P2;SDS_P1;SDS_P2;PMS_P1;PMS_P2;Temp;Humidity;BMP_temperature;BMP_pressure;BME280_temperature;BME280_humidity;BME280_pressure;Samples;Min_cycle;Max_cycle;Signal;HPM_P1;HPM_P2
2022/05/29 00:00:23;;;;;;;3.40;2.27;;;11.90;87.50;;;;;;5028760;28;20448;-71
2022/05/29 00:03:09;;;;;;;4.03;2.20;;;12.00;88.10;;;;;;5028748;28;20419;-71
2022/05/29 00:05:54;;;;;;;6.87;2.33;;;11.90;88.40;;;;;;5025393;28;20419;-71
2022/05/29 00:08:44;;;;;;;5.77;2.60;;;11.70;88.60;;;;;;5023797;28;20460;-71
2022/05/29 00:11:30;;;;;;;7.90;2.50;;;11.50;90.40;;;;;;5027816;28;20523;-71
2022/05/29 00:14:16;;;;;;;6.10;2.47;;;11.40;91.50;;;;;;5022376;28;20464;-71
2022/05/29 00:17:02;;;;;;;4.40;2.40;;;11.50;91.00;;;;;;5027816;28;20440;-71
2022/05/29 00:19:47;;;;;;;6.90;3.60;;;11.60;90.90;;;;;;5027007;28;20446;-71
2022/05/29 00:22:34;;;;;;;3.93;1.90;;;11.70;90.60;;;;;;5029663;28;20444;-71
2022/05/29 00:25:21;;;;;;;5.03;2.37;;;11.70;90.40;;;;;;5024103;28;20419;-71
2022/05/29 00:28:07;;;;;;;5.03;2.77;;;11.60;90.50;;;;;;5026756;28;20436;-71
2022/05/29 00:30:53;;;;;;;6.30;2.50;;;11.60;90.60;;;;;;5027294;28;20947;-71
2022/05/29 00:33:38;;;;;;;5.80;2.27;;;11.70;91.10;;;;;;5020583;28;20423;-71
2022/05/29 00:36:33;;;;;;;3.43;2.27;;;11.70;90.80;;;;;;5028381;28;20457;-71
2022/05/29 00:39:19;;;;;;;4.13;2.40;;;11.60;90.70;;;;;;5027669;28;20480;-71
2022/05/29 00:42:09;;;;;;;5.37;2.50;;;11.50;91.30;;;;;;5027337;28;20420;-71
2022/05/29 00:44:55;;;;;;;5.83;2.80;;;11.50;90.90;;;;;;5020662;28;20533;-71
2022/05/29 00:47:40;;;;;;;4.83;2.00;;;11.50;90.80;;;;;;5024670;28;20974;-71
2022/05/29 00:50:26;;;;;;;6.60;2.30;;;11.70;88.80;;;;;;5022815;28;20495;-70
2022/05/29 00:53:14;;;;;;;6.20;2.27;;;11.70;87.10;;;;;;5025398;28;20454;-71
2022/05/29 00:56:03;;;;;;;8.23;2.47;;;11.90;85.70;;;;;;5027761;28;20456;-71
2022/05/29 00:58:50;;;;;;;9.60;2.70;;;12.00;82.60;;;;;;5025901;28;20500;-71
2022/05/29 01:01:36;;;;;;;7.67;2.00;;;12.20;81.10;;;;;;5038364;22;20472;-76
2022/05/29 01:04:21;;;;;;;6.20;2.20;;;12.20;78.60;;;;;;5001651;28;20449;-76
2022/05/29 01:07:11;;;;;;;5.30;1.70;;;12.30;77.70;;;;;;5006564;28;20444;-76
2022/05/29 01:09:59;;;;;;;5.10;2.20;;;12.40;76.30;;;;;;5006780;28;20435;-76
2022/05/29 01:13:06;;;;;;;12.20;2.77;;;12.50;75.30;;;;;;4984390;28;20976;-76
2022/05/29 01:15:59;;;;;;;8.03;2.07;;;12.50;74.50;;;;;;4989346;28;20494;-76
2022/05/29 01:18:56;;;;;;;3.00;1.73;;;12.60;73.00;;;;;;4989189;28;20814;-76
2022/05/29 01:22:03;;;;;;;7.80;2.93;;;12.60;72.60;;;;;;4985152;28;20576;-76
2022/05/29 01:25:06;;;;;;;8.40;2.50;;;12.60;71.20;;;;;;4989095;28;20488;-76
2022/05/29 01:28:10;;;;;;;5.40;1.90;;;12.60;72.60;;;;;;4987808;28;20604;-75
2022/05/29 01:31:05;;;;;;;8.80;3.40;;;12.60;72.10;;;;;;4990711;28;20601;-76
2022/05/29 01:33:59;;;;;;;6.10;2.13;;;12.60;71.40;;;;;;4986541;28;20428;-76
2022/05/29 01:36:52;;;;;;;10.23;2.53;;;12.70;70.90;;;;;;4990583;28;20513;-76
2022/05/29 01:39:42;;;;;;;3.53;1.83;;;12.70;71.80;;;;;;4987258;28;20457;-76
2022/05/29 01:42:33;;;;;;;5.50;2.10;;;12.70;70.90;;;;;;4985878;28;20467;-76
2022/05/29 01:45:27;;;;;;;9.00;3.10;;;12.70;71.30;;;;;;4989198;28;21058;-76
2022/05/29 01:48:17;;;;;;;8.77;2.60;;;12.70;70.60;;;;;;4990185;28;20867;-76
2022/05/29 01:51:11;;;;;;;6.67;2.30;;;12.70;70.50;;;;;;4989799;28;20462;-75
2022/05/29 01:54:02;;;;;;;7.83;1.70;;;12.80;70.10;;;;;;4982313;28;20582;-76
2022/05/29 01:56:52;;;;;;;4.50;1.70;;;12.80;69.80;;;;;;4989039;28;20828;-76
2022/05/29 01:59:45;;;;;;;18.97;2.17;;;12.80;69.50;;;;;;4988968;28;20462;-76
2022/05/29 02:02:37;;;;;;;7.77;2.60;;;12.70;69.60;;;;;;4987368;28;20460;-76
2022/05/29 02:05:26;;;;;;;6.83;2.20;;;12.70;68.70;;;;;;4984746;28;20556;-76
2022/05/29 02:08:16;;;;;;;9.07;2.10;;;12.60;69.20;;;;;;4989816;28;20891;-76
2022/05/29 02:11:06;;;;;;;8.67;1.93;;;12.70;69.40;;;;;;4989553;28;21211;-76
2022/05/29 02:13:55;;;;;;;6.60;2.37;;;12.70;69.60;;;;;;4987411;28;21194;-76
2022/05/29 02:16:46;;;;;;;4.70;2.17;;;12.60;70.70;;;;;;4988812;28;20461;-76
2022/05/29 02:19:37;;;;;;;5.33;1.87;;;12.60;72.60;;;;;;4986659;28;20444;-76
2022/05/29 02:22:27;;;;;;;6.10;2.37;;;12.60;72.20;;;;;;4983214;28;20578;-76
2022/05/29 02:25:20;;;;;;;9.33;1.93;;;12.60;71.20;;;;;;4989148;28;20477;-76
2022/05/29 02:28:10;;;;;;;7.70;2.20;;;12.50;71.10;;;;;;4988948;28;20824;-76
2022/05/29 02:31:06;;;;;;;7.30;2.30;;;12.50;71.40;;;;;;4987417;28;20461;-76
2022/05/29 02:34:00;;;;;;;7.77;1.90;;;12.60;71.70;;;;;;4988969;28;20482;-76
2022/05/29 02:36:52;;;;;;;10.03;2.93;;;12.60;72.00;;;;;;4986684;28;20934;-76
2022/05/29 02:39:53;;;;;;;5.90;2.00;;;12.60;73.10;;;;;;4990483;28;20456;-77
2022/05/29 02:42:43;;;;;;;4.77;1.80;;;12.60;73.30;;;;;;4983629;28;20432;-76
2022/05/29 02:45:34;;;;;;;6.07;2.83;;;12.60;73.60;;;;;;4990006;28;20469;-75
2022/05/29 02:48:30;;;;;;;7.43;1.90;;;12.50;73.60;;;;;;4989339;28;20528;-76
2022/05/29 02:51:24;;;;;;;8.67;3.00;;;12.50;73.70;;;;;;4988954;28;20469;-77
2022/05/29 02:54:13;;;;;;;5.03;1.90;;;12.60;74.70;;;;;;4992712;28;20586;-76
2022/05/29 02:57:01;;;;;;;8.20;2.40;;;12.50;74.30;;;;;;4991700;28;20831;-76
2022/05/29 02:59:50;;;;;;;6.33;2.83;;;12.50;74.00;;;;;;4990310;28;20481;-76
2022/05/29 03:02:39;;;;;;;10.73;2.30;;;12.50;74.10;;;;;;4988320;28;20461;-76
2022/05/29 03:05:31;;;;;;;7.30;2.73;;;12.40;74.00;;;;;;4988124;28;20429;-76
2022/05/29 03:08:45;;;;;;;7.47;2.47;;;12.40;73.90;;;;;;4992341;28;20524;-76
2022/05/29 03:11:39;;;;;;;5.90;2.23;;;12.40;74.20;;;;;;4985436;28;20457;-76
2022/05/29 03:14:32;;;;;;;5.30;1.83;;;12.50;73.40;;;;;;4991890;28;20788;-76
2022/05/29 03:17:37;;;;;;;6.37;2.60;;;12.40;73.60;;;;;;4992791;28;20532;-76
2022/05/29 03:20:33;;;;;;;9.97;3.10;;;12.40;74.50;;;;;;4986324;28;20445;-76
2022/05/29 03:23:23;;;;;;;10.00;2.50;;;12.40;74.40;;;;;;4992849;28;20902;-76
2022/05/29 03:26:19;;;;;;;8.57;2.47;;;12.50;73.80;;;;;;4991304;28;20420;-76
2022/05/29 03:29:11;;;;;;;12.60;2.30;;;12.60;74.10;;;;;;4991625;28;20898;-76
2022/05/29 03:31:58;;;;;;;5.23;1.87;;;12.40;75.30;;;;;;4986864;28;20469;-76
2022/05/29 03:34:43;;;;;;;9.80;2.90;;;12.40;76.40;;;;;;4992196;28;21030;-76
2022/05/29 03:37:29;;;;;;;7.33;2.67;;;12.40;76.20;;;;;;4988590;28;20393;-76
2022/05/29 03:40:15;;;;;;;10.40;2.43;;;12.40;76.90;;;;;;4992402;28;21002;-76
2022/05/29 03:43:01;;;;;;;19.77;3.67;;;12.40;77.70;;;;;;4990958;28;20473;-76
2022/05/29 03:45:48;;;;;;;11.40;2.27;;;12.40;77.70;;;;;;4991994;28;20450;-77
2022/05/29 03:48:34;;;;;;;12.30;2.57;;;12.30;79.20;;;;;;4991449;28;20799;-76
2022/05/29 03:51:19;;;;;;;3.40;1.87;;;12.30;79.00;;;;;;4989658;28;20497;-76
2022/05/29 03:54:06;;;;;;;7.87;3.33;;;12.30;78.80;;;;;;4991296;28;21058;-76
2022/05/29 03:56:52;;;;;;;12.03;2.37;;;12.30;79.10;;;;;;4987678;28;20503;-76
2022/05/29 03:59:37;;;;;;;6.33;2.27;;;12.30;79.00;;;;;;4989682;28;20982;-76
2022/05/29 04:02:25;;;;;;;13.53;2.63;;;12.30;79.40;;;;;;4988233;28;20461;-76
2022/05/29 04:05:11;;;;;;;7.83;2.40;;;12.30;80.20;;;;;;4991307;28;20465;-77
2022/05/29 04:14:05;;;;;;;15.17;3.53;;;12.10;82.60;;;;;;4991850;28;20441;-76
2022/05/29 04:16:52;;;;;;;8.40;2.00;;;12.10;83.90;;;;;;4990950;28;20501;-75
2022/05/29 04:19:39;;;;;;;8.33;2.93;;;12.10;84.20;;;;;;4988164;28;20452;-75
2022/05/29 04:22:25;;;;;;;10.27;2.90;;;12.10;84.50;;;;;;4989481;28;20524;-76
2022/05/29 04:25:11;;;;;;;11.83;2.50;;;12.10;84.50;;;;;;4990514;28;20562;-76
2022/05/29 04:27:57;;;;;;;5.10;2.27;;;12.20;84.90;;;;;;4990788;28;21009;-76
2022/05/29 04:30:43;;;;;;;13.67;3.73;;;12.20;85.10;;;;;;4986609;28;20977;-76
2022/05/29 04:33:29;;;;;;;6.77;2.60;;;12.20;85.20;;;;;;4987335;28;20589;-76
2022/05/29 04:36:15;;;;;;;9.87;2.70;;;12.20;84.60;;;;;;4991192;28;20500;-76
2022/05/29 04:39:01;;;;;;;6.20;2.67;;;12.30;84.30;;;;;;4991043;28;20453;-76
2022/05/29 04:41:47;;;;;;;9.83;3.50;;;12.30;84.00;;;;;;4986937;28;20594;-76
2022/05/29 04:44:33;;;;;;;8.73;2.90;;;12.20;85.10;;;;;;4987407;28;20445;-76
2022/05/29 04:47:19;;;;;;;13.33;2.60;;;12.20;85.70;;;;;;4985580;28;20442;-76
2022/05/29 04:50:06;;;;;;;4.73;2.17;;;12.20;86.50;;;;;;4989152;28;20937;-75
2022/05/29 04:52:53;;;;;;;9.70;2.43;;;12.10;86.40;;;;;;4990020;28;20426;-76
2022/05/29 04:55:40;;;;;;;4.03;2.37;;;12.10;86.40;;;;;;4986561;28;20549;-75
2022/05/29 04:58:28;;;;;;;8.57;2.20;;;12.10;86.30;;;;;;4991492;28;20497;-76
2022/05/29 05:01:14;;;;;;;9.40;2.17;;;12.10;86.40;;;;;;4985274;28;20500;-76
2022/05/29 05:04:00;;;;;;;5.20;2.50;;;12.10;86.40;;;;;;4989292;28;20964;-76
2022/05/29 05:06:45;;;;;;;6.80;2.20;;;12.10;86.40;;;;;;4986038;28;20435;-76
2022/05/29 05:09:32;;;;;;;5.30;1.87;;;12.10;87.30;;;;;;4981401;28;20439;-76
2022/05/29 05:12:18;;;;;;;8.83;2.43;;;12.10;86.40;;;;;;4988304;28;20477;-76
2022/05/29 05:15:04;;;;;;;12.87;2.30;;;12.20;85.90;;;;;;4985970;28;20419;-76
2022/05/29 05:17:50;;;;;;;8.63;2.30;;;12.20;86.50;;;;;;4987139;28;20504;-76
2022/05/29 05:20:37;;;;;;;9.93;3.70;;;12.30;85.80;;;;;;4986612;28;20474;-75
2022/05/29 05:23:23;;;;;;;7.23;2.40;;;12.40;85.70;;;;;;4982541;28;20457;-76
2022/05/29 05:26:11;;;;;;;7.30;1.90;;;12.50;84.00;;;;;;4986949;28;20448;-75
2022/05/29 05:28:57;;;;;;;8.83;2.40;;;12.60;83.00;;;;;;4986506;28;20421;-75
2022/05/29 05:31:42;;;;;;;14.97;2.77;;;12.70;82.10;;;;;;4986837;28;20998;-76
2022/05/29 05:34:28;;;;;;;10.37;2.20;;;12.70;81.70;;;;;;4985824;28;20429;-75
2022/05/29 05:37:14;;;;;;;5.73;2.33;;;12.60;81.50;;;;;;4987585;28;20997;-76
2022/05/29 05:40:00;;;;;;;9.07;2.20;;;12.50;82.80;;;;;;4981640;28;20452;-76
2022/05/29 05:42:47;;;;;;;6.63;2.10;;;12.40;83.80;;;;;;4987244;28;20421;-76
2022/05/29 05:45:33;;;;;;;3.80;1.70;;;12.50;80.60;;;;;;4985886;28;20424;-76
2022/05/29 05:48:19;;;;;;;5.50;2.30;;;12.50;81.00;;;;;;4986668;28;20505;-76
2022/05/29 05:51:04;;;;;;;7.40;2.23;;;12.50;82.90;;;;;;4982443;28;20465;-76
2022/05/29 05:53:50;;;;;;;5.73;1.90;;;12.40;85.10;;;;;;4983140;28;20432;-76
2022/05/29 05:56:36;;;;;;;6.37;2.00;;;12.40;86.70;;;;;;4983851;28;20437;-76
2022/05/29 05:59:23;;;;;;;4.13;1.50;;;12.40;83.60;;;;;;4982810;28;20555;-76
2022/05/29 06:02:10;;;;;;;6.83;1.73;;;12.40;83.80;;;;;;4986810;28;20534;-76
2022/05/29 06:04:56;;;;;;;6.90;1.93;;;12.40;84.70;;;;;;4985617;28;20685;-76
2022/05/29 06:07:41;;;;;;;6.53;2.23;;;12.50;85.50;;;;;;4986654;28;20466;-76
2022/05/29 06:10:28;;;;;;;7.17;1.80;;;12.60;85.20;;;;;;4983514;28;20838;-76
2022/05/29 06:13:13;;;;;;;4.10;1.67;;;12.50;86.60;;;;;;4985538;28;20540;-76
2022/05/29 06:16:02;;;;;;;7.00;2.50;;;12.50;86.40;;;;;;4989557;28;20428;-76
2022/05/29 06:18:49;;;;;;;7.80;2.50;;;12.40;86.00;;;;;;4985417;28;20450;-76
2022/05/29 06:21:35;;;;;;;5.23;2.20;;;12.50;86.20;;;;;;4988841;28;20452;-76
2022/05/29 06:24:20;;;;;;;12.40;2.60;;;12.60;86.80;;;;;;4983316;28;20944;-76
2022/05/29 06:27:06;;;;;;;7.23;1.93;;;12.70;87.80;;;;;;4986061;28;20804;-76
2022/05/29 06:29:52;;;;;;;7.70;2.20;;;12.70;85.90;;;;;;4982237;28;20441;-76
2022/05/29 06:32:40;;;;;;;10.30;2.57;;;12.80;85.30;;;;;;4984710;28;20421;-76
2022/05/29 06:35:26;;;;;;;9.63;2.40;;;12.70;84.30;;;;;;4985433;28;20458;-76
2022/05/29 06:38:12;;;;;;;6.97;2.10;;;12.70;85.10;;;;;;4984777;28;20504;-76
2022/05/29 06:40:57;;;;;;;5.60;1.87;;;12.70;85.80;;;;;;4985669;28;20485;-76
2022/05/29 06:43:43;;;;;;;10.83;2.67;;;12.70;85.90;;;;;;4985515;28;20566;-76
2022/05/29 06:46:30;;;;;;;9.33;2.30;;;12.70;86.90;;;;;;4982159;28;21104;-76
2022/05/29 06:49:17;;;;;;;7.50;2.47;;;12.70;86.30;;;;;;4985022;28;20460;-77
2022/05/29 06:52:07;;;;;;;8.37;2.23;;;12.70;85.60;;;;;;4987373;28;20823;-76
2022/05/29 06:54:53;;;;;;;7.77;2.77;;;12.70;84.90;;;;;;4987038;28;20602;-76
2022/05/29 06:57:40;;;;;;;9.70;2.70;;;12.70;85.00;;;;;;4982455;28;20472;-75
2022/05/29 07:09:40;;;;;;;9.73;2.50;;;12.80;82.60;;;;;;4988067;28;20478;-77
2022/05/29 07:12:32;;;;;;;11.47;2.80;;;12.70;84.00;;;;;;4986991;28;20474;-78
2022/05/29 07:15:18;;;;;;;10.53;2.10;;;12.80;84.50;;;;;;4988805;28;20421;-77
2022/05/29 07:18:04;;;;;;;12.20;2.27;;;13.00;82.70;;;;;;4984741;28;20540;-77
2022/05/29 07:20:50;;;;;;;6.87;2.10;;;13.20;82.80;;;;;;4986365;28;20985;-76
2022/05/29 07:23:38;;;;;;;11.97;2.70;;;13.40;81.20;;;;;;4988911;28;20446;-77
2022/05/29 07:26:23;;;;;;;8.73;3.00;;;13.60;79.80;;;;;;4992752;28;20453;-77
2022/05/29 07:29:11;;;;;;;4.70;1.60;;;13.80;79.10;;;;;;4987843;28;20449;-77
2022/05/29 07:31:57;;;;;;;5.73;1.93;;;13.90;76.60;;;;;;4988837;28;20836;-77
2022/05/29 07:34:43;;;;;;;8.40;2.03;;;14.00;75.50;;;;;;4986905;28;20419;-77
2022/05/29 07:37:29;;;;;;;15.63;2.73;;;14.10;75.30;;;;;;4988292;28;20450;-77
2022/05/29 07:40:17;;;;;;;8.23;2.20;;;14.30;72.20;;;;;;4990760;28;20456;-77
2022/05/29 07:43:19;;;;;;;9.67;1.80;;;14.30;71.50;;;;;;4990198;28;20444;-77
2022/05/29 07:46:05;;;;;;;6.77;1.87;;;14.50;69.40;;;;;;4989425;28;20436;-77
2022/05/29 07:48:51;;;;;;;7.23;2.10;;;14.60;65.70;;;;;;4990630;28;20450;-77
2022/05/29 07:51:36;;;;;;;10.43;2.43;;;14.70;65.50;;;;;;4989289;28;20467;-77
2022/05/29 07:54:25;;;;;;;7.33;2.07;;;14.70;66.10;;;;;;4991038;28;20565;-77
2022/05/29 07:57:12;;;;;;;6.80;2.27;;;14.60;65.30;;;;;;4989688;28;20429;-77
2022/05/29 07:59:58;;;;;;;7.13;2.10;;;14.60;64.00;;;;;;4991719;28;21010;-78
2022/05/29 08:02:44;;;;;;;6.33;1.90;;;14.70;64.90;;;;;;4994783;28;20428;-77
2022/05/29 08:05:31;;;;;;;7.53;2.23;;;14.80;64.10;;;;;;4990866;28;20481;-77
2022/05/29 08:08:17;;;;;;;8.60;2.50;;;14.90;63.00;;;;;;4988438;28;20474;-78
2022/05/29 08:11:03;;;;;;;6.30;2.10;;;15.00;62.70;;;;;;4991789;28;20885;-77
2022/05/29 08:13:50;;;;;;;4.93;1.60;;;15.10;64.90;;;;;;4987483;28;20461;-77
2022/05/29 08:16:36;;;;;;;5.50;1.70;;;15.30;61.60;;;;;;4989640;28;20454;-76
2022/05/29 08:19:23;;;;;;;3.53;1.90;;;15.40;59.30;;;;;;4990830;28;20457;-77
2022/05/29 08:22:09;;;;;;;6.50;1.60;;;15.50;58.90;;;;;;4989047;28;20526;-77
2022/05/29 08:31:03;;;;;;;10.53;2.13;;;15.60;60.60;;;;;;4989563;28;20581;-77
2022/05/29 08:33:49;;;;;;;5.47;2.10;;;15.50;58.70;;;;;;4992285;28;20446;-77
2022/05/29 08:36:36;;;;;;;4.90;1.77;;;15.40;56.00;;;;;;4988096;28;20445;-77
2022/05/29 08:39:21;;;;;;;6.93;2.60;;;15.20;54.90;;;;;;4990950;28;20560;-75
2022/05/29 08:42:08;;;;;;;7.00;2.03;;;15.10;54.80;;;;;;4989228;28;20542;-77
2022/05/29 08:44:54;;;;;;;5.53;2.27;;;15.00;56.00;;;;;;4992920;28;20458;-76
2022/05/29 08:47:45;;;;;;;7.77;1.80;;;14.80;58.30;;;;;;4988090;28;20504;-77
2022/05/29 08:50:40;;;;;;;8.00;1.60;;;14.60;57.20;;;;;;4989703;28;21068;-77
2022/05/29 08:53:35;;;;;;;9.43;2.20;;;14.50;57.40;;;;;;4991885;28;20495;-77
2022/05/29 08:56:28;;;;;;;5.97;1.63;;;14.50;59.60;;;;;;4986656;28;20432;-77
2022/05/29 08:59:23;;;;;;;6.93;2.33;;;14.50;59.90;;;;;;4993108;28;20417;-78
2022/05/29 09:02:22;;;;;;;4.30;1.50;;;14.50;60.50;;;;;;4996761;28;20454;-80
2022/05/29 09:05:12;;;;;;;4.27;2.20;;;14.60;60.50;;;;;;4994359;28;20423;-77
2022/05/29 09:08:04;;;;;;;5.93;2.33;;;14.70;55.90;;;;;;4978814;28;20471;-80
2022/05/29 09:10:55;;;;;;;6.73;1.60;;;14.50;52.50;;;;;;4978428;28;20443;-78
2022/05/29 09:13:46;;;;;;;5.90;1.40;;;14.50;47.50;;;;;;4977584;28;20478;-80
2022/05/29 09:16:40;;;;;;;4.63;1.57;;;14.70;44.70;;;;;;4988292;28;20964;-78
2022/05/29 09:19:37;;;;;;;4.57;1.93;;;14.70;49.70;;;;;;4994967;28;20383;-79
2022/05/29 09:22:29;;;;;;;8.20;1.70;;;15.10;52.10;;;;;;4992478;28;20462;-76
2022/05/29 09:25:23;;;;;;;10.20;1.87;;;15.40;48.40;;;;;;4990079;28;20889;-76
2022/05/29 09:28:12;;;;;;;5.37;1.70;;;15.40;46.10;;;;;;4992863;28;20417;-76
2022/05/29 09:31:07;;;;;;;4.37;1.73;;;15.40;47.20;;;;;;4992784;28;20446;-76
2022/05/29 09:33:53;;;;;;;3.90;1.67;;;15.40;48.40;;;;;;4992418;28;20918;-76
2022/05/29 09:36:50;;;;;;;3.97;1.60;;;15.10;48.30;;;;;;4988477;28;20429;-76
2022/05/29 09:39:44;;;;;;;11.03;1.70;;;14.90;49.80;;;;;;4972884;28;20424;-76
2022/05/29 09:42:35;;;;;;;5.60;2.00;;;14.60;50.00;;;;;;4973094;28;20489;-75
2022/05/29 09:45:27;;;;;;;9.20;2.23;;;14.50;50.90;;;;;;4981320;28;20509;-77
2022/05/29 09:51:31;;;;;;;4.63;1.40;;;14.40;54.60;;;;;;4983749;28;20466;-76
2022/05/29 09:54:27;;;;;;;4.80;1.73;;;14.30;56.00;;;;;;4984759;28;20425;-76
2022/05/29 09:57:22;;;;;;;4.83;1.57;;;14.50;53.00;;;;;;4984564;28;20563;-76
2022/05/29 10:00:14;;;;;;;5.70;1.87;;;14.80;47.80;;;;;;4983589;28;20508;-77
2022/05/29 10:03:02;;;;;;;5.73;1.67;;;15.00;44.50;;;;;;4984789;28;20424;-76
2022/05/29 10:05:48;;;;;;;6.63;1.83;;;15.20;45.80;;;;;;4985587;28;20425;-76
2022/05/29 10:08:34;;;;;;;5.57;1.93;;;15.40;42.20;;;;;;4982452;28;20422;-75
2022/05/29 10:11:22;;;;;;;8.90;1.83;;;15.60;45.10;;;;;;4982413;28;20458;-75
2022/05/29 10:14:26;;;;;;;3.13;1.40;;;15.90;40.20;;;;;;4984881;28;20427;-75
2022/05/29 10:17:15;;;;;;;4.57;1.70;;;16.20;39.80;;;;;;4987101;28;20436;-76
2022/05/29 10:20:01;;;;;;;8.63;1.70;;;16.40;35.80;;;;;;4985837;28;20585;-75
2022/05/29 10:22:46;;;;;;;7.40;1.70;;;16.40;34.80;;;;;;4986637;28;20412;-75
2022/05/29 10:25:36;;;;;;;3.20;1.20;;;16.30;37.90;;;;;;4985162;28;20465;-73
2022/05/29 10:28:26;;;;;;;5.60;1.80;;;16.10;41.20;;;;;;4985930;28;20447;-73
2022/05/29 10:31:21;;;;;;;6.97;1.50;;;15.90;39.00;;;;;;4984042;28;20825;-73
2022/05/29 10:34:09;;;;;;;7.63;1.83;;;15.80;40.80;;;;;;4980973;28;20459;-73
2022/05/29 10:36:56;;;;;;;14.50;2.17;;;15.60;42.30;;;;;;4988386;28;20466;-73
2022/05/29 10:39:42;;;;;;;7.33;1.80;;;15.50;42.20;;;;;;4986534;28;20480;-73
2022/05/29 10:42:43;;;;;;;5.50;1.70;;;15.30;41.10;;;;;;4988001;28;20432;-74
2022/05/29 10:45:32;;;;;;;6.03;1.20;;;15.30;39.90;;;;;;4979070;28;20512;-78
2022/05/29 10:48:53;;;;;;;2.93;1.20;;;15.20;39.30;;;;;;4979063;28;20842;-77
2022/05/29 10:51:55;;;;;;;8.83;2.10;;;15.40;40.30;;;;;;4991814;28;20529;-77
2022/05/29 10:55:09;;;;;;;3.90;1.30;;;15.80;44.00;;;;;;4982245;28;20979;-77
2022/05/29 10:58:18;;;;;;;6.03;1.60;;;16.10;39.20;;;;;;4963299;28;20459;-78
2022/05/29 11:04:35;;;;;;;5.50;1.50;;;16.30;37.30;;;;;;4987748;28;20497;-77
2022/05/29 11:07:35;;;;;;;4.10;1.40;;;16.10;36.10;;;;;;4996935;28;20450;-78
2022/05/29 11:10:35;;;;;;;4.17;1.70;;;15.90;35.20;;;;;;4995894;28;21024;-78
2022/05/29 11:13:39;;;;;;;5.10;1.37;;;15.90;36.80;;;;;;4994623;28;20988;-77
2022/05/29 11:16:35;;;;;;;4.57;1.50;;;15.80;35.10;;;;;;4995711;28;20438;-78
2022/05/29 11:19:56;;;;;;;5.80;1.70;;;15.80;35.10;;;;;;4997221;28;20446;-77
2022/05/29 11:22:48;;;;;;;7.53;1.80;;;15.90;36.00;;;;;;4993523;28;20446;-78
2022/05/29 11:25:45;;;;;;;4.70;1.47;;;15.50;33.20;;;;;;4990576;28;20473;-78
2022/05/29 11:28:54;;;;;;;4.50;1.20;;;15.40;34.70;;;;;;4992314;28;20793;-78
2022/05/29 11:31:48;;;;;;;5.50;1.70;;;15.50;35.50;;;;;;4988438;28;20528;-78
2022/05/29 11:34:37;;;;;;;7.37;1.70;;;15.60;38.00;;;;;;4991101;28;20458;-78
2022/05/29 11:37:43;;;;;;;3.63;1.40;;;15.60;37.80;;;;;;4994391;28;20973;-77
2022/05/29 11:40:35;;;;;;;6.10;1.20;;;15.70;40.10;;;;;;4991221;28;20539;-77
2022/05/29 11:43:28;;;;;;;7.33;1.37;;;15.80;35.10;;;;;;4990236;28;20525;-78
2022/05/29 11:52:46;;;;;;;6.23;1.40;;;16.80;34.60;;;;;;4995362;28;20485;-77
2022/05/29 11:55:38;;;;;;;4.10;1.13;;;17.20;30.00;;;;;;4989868;28;20577;-77
2022/05/29 11:58:29;;;;;;;8.20;1.20;;;17.30;28.70;;;;;;4991012;28;20432;-78
2022/05/29 12:01:20;;;;;;;4.17;1.77;;;17.30;27.50;;;;;;4994456;28;20596;-77
2022/05/29 12:04:13;;;;;;;3.57;0.90;;;17.60;28.50;;;;;;4987890;28;20741;-77
2022/05/29 12:07:07;;;;;;;4.90;1.20;;;17.80;27.60;;;;;;4993487;28;20915;-77
2022/05/29 12:09:58;;;;;;;3.17;1.30;;;18.10;32.10;;;;;;4985055;28;20438;-77
2022/05/29 12:12:49;;;;;;;4.70;1.37;;;18.40;29.60;;;;;;4992564;28;20509;-76
2022/05/29 12:15:34;;;;;;;8.50;1.50;;;18.60;27.70;;;;;;4995300;28;20438;-78
2022/05/29 12:18:21;;;;;;;5.07;1.03;;;18.70;27.80;;;;;;4993691;28;20941;-77
2022/05/29 12:21:08;;;;;;;2.67;0.90;;;18.80;28.40;;;;;;4988610;28;20473;-77
2022/05/29 12:23:57;;;;;;;4.83;1.60;;;19.00;27.70;;;;;;4989740;28;20481;-77
2022/05/29 12:26:48;;;;;;;4.30;1.50;;;19.00;27.10;;;;;;4994184;28;20513;-77
2022/05/29 12:29:40;;;;;;;5.23;1.20;;;19.10;27.30;;;;;;4994241;28;20442;-77
2022/05/29 12:32:27;;;;;;;3.67;1.10;;;19.10;27.40;;;;;;4990742;28;20926;-77
2022/05/29 12:35:17;;;;;;;6.33;1.10;;;18.90;26.30;;;;;;4993995;28;20446;-77
2022/05/29 12:38:18;;;;;;;3.60;1.17;;;18.50;25.20;;;;;;4993756;28;20521;-76
2022/05/29 12:41:40;;;;;;;2.70;1.27;;;18.50;25.20;;;;;;4990467;28;20633;-77
2022/05/29 12:44:54;;;;;;;2.50;1.10;;;18.70;25.60;;;;;;4989460;28;20469;-78
2022/05/29 12:48:41;;;;;;;3.27;1.17;;;18.60;23.10;;;;;;4988356;28;20888;-77
2022/05/29 12:51:44;;;;;;;4.23;1.10;;;18.00;24.50;;;;;;4952869;28;20596;-77
2022/05/29 12:54:47;;;;;;;2.10;1.07;;;17.60;25.40;;;;;;4988285;28;20769;-76
2022/05/29 12:58:05;;;;;;;3.13;1.30;;;17.20;25.10;;;;;;4994936;28;20443;-77
2022/05/29 13:01:07;;;;;;;2.37;1.00;;;17.10;26.90;;;;;;4991489;28;20470;-78
2022/05/29 13:04:33;;;;;;;7.77;1.07;;;17.10;26.30;;;;;;4994108;28;20975;-77
2022/05/29 13:07:30;;;;;;;3.47;1.10;;;17.00;24.90;;;;;;4980039;28;20433;-77
2022/05/29 13:10:19;;;;;;;6.20;1.67;;;17.00;27.70;;;;;;4986562;28;20943;-77
2022/05/29 13:13:09;;;;;;;4.83;1.47;;;17.00;26.30;;;;;;4988835;28;20438;-78
2022/05/29 13:15:55;;;;;;;5.83;1.13;;;17.10;26.00;;;;;;4986285;28;20493;-77
2022/05/29 13:19:14;;;;;;;4.03;1.40;;;17.20;25.10;;;;;;4987853;28;20409;-77
2022/05/29 13:22:02;;;;;;;3.10;1.10;;;17.40;25.80;;;;;;4988099;28;20486;-78
2022/05/29 13:25:02;;;;;;;1.97;0.87;;;17.50;25.40;;;;;;4988741;28;20447;-75
2022/05/29 13:27:48;;;;;;;4.80;1.47;;;17.60;26.30;;;;;;4989836;28;20441;-78
2022/05/29 13:30:58;;;;;;;6.30;1.27;;;17.70;26.90;;;;;;4986714;28;20839;-77
2022/05/29 13:33:53;;;;;;;4.30;1.20;;;17.70;26.10;;;;;;4989369;28;20428;-78
2022/05/29 13:37:07;;;;;;;8.10;1.40;;;17.60;26.80;;;;;;4988159;28;20606;-77
2022/05/29 13:39:59;;;;;;;4.13;1.00;;;17.40;26.90;;;;;;4990145;28;20433;-77
2022/05/29 13:42:48;;;;;;;4.53;1.30;;;17.30;26.60;;;;;;4983501;28;20490;-77
2022/05/29 13:45:57;;;;;;;4.00;1.47;;;17.10;26.60;;;;;;4993533;28;20968;-78
2022/05/29 13:49:02;;;;;;;4.00;1.40;;;17.00;26.80;;;;;;4992418;28;20436;-77
2022/05/29 13:51:49;;;;;;;3.27;1.53;;;16.90;26.30;;;;;;4991688;28;20566;-76
2022/05/29 13:54:36;;;;;;;12.00;1.00;;;16.90;27.40;;;;;;4992341;28;20432;-76
2022/05/29 14:03:58;;;;;;;6.80;1.30;;;16.80;27.60;;;;;;4993183;28;20498;-76
2022/05/29 14:03:59;;;;;;;5.40;1.73;;;16.80;27.10;;;;;;4993814;28;20421;-74
2022/05/29 14:06:47;;;;;;;2.40;1.10;;;16.90;27.60;;;;;;4995225;28;20430;-78
2022/05/29 14:09:40;;;;;;;3.13;1.47;;;16.90;27.90;;;;;;4995545;28;21067;-77
2022/05/29 14:12:52;;;;;;;2.57;1.43;;;17.00;28.10;;;;;;4987340;28;20542;-77
2022/05/29 14:15:51;;;;;;;3.37;1.20;;;17.10;29.30;;;;;;4991231;28;20469;-78
2022/05/29 14:18:42;;;;;;;10.60;1.80;;;17.20;28.10;;;;;;4994899;28;20446;-77
2022/05/29 14:22:03;;;;;;;4.90;1.30;;;17.30;26.70;;;;;;4989929;28;20485;-77
2022/05/29 14:25:07;;;;;;;4.23;1.23;;;17.40;27.00;;;;;;4985754;28;20546;-78
2022/05/29 14:28:08;;;;;;;3.27;1.20;;;17.60;25.50;;;;;;4990563;28;20450;-78
2022/05/29 14:31:09;;;;;;;3.23;1.17;;;17.90;25.90;;;;;;4990096;28;20929;-78
2022/05/29 14:34:24;;;;;;;7.33;1.67;;;18.30;25.00;;;;;;4991389;28;20416;-78
2022/05/29 14:37:30;;;;;;;1.87;0.97;;;18.50;25.10;;;;;;4993576;28;20465;-78
2022/05/29 14:40:25;;;;;;;2.37;0.80;;;18.70;25.40;;;;;;4992277;28;20528;-78
2022/05/29 14:43:16;;;;;;;9.10;1.23;;;19.00;25.60;;;;;;4987395;28;21038;-77
2022/05/29 14:46:12;;;;;;;4.07;1.20;;;19.40;24.90;;;;;;4993335;28;20939;-76
2022/05/29 14:49:03;;;;;;;2.70;1.10;;;19.70;23.30;;;;;;4993889;28;20890;-77
2022/05/29 14:51:55;;;;;;;5.90;1.30;;;20.00;22.80;;;;;;4992543;28;20504;-77
2022/05/29 14:54:46;;;;;;;2.20;1.00;;;20.10;22.60;;;;;;4988752;28;20923;-77
2022/05/29 14:57:32;;;;;;;6.23;1.00;;;20.20;21.50;;;;;;4991705;28;20968;-77
2022/05/29 15:00:28;;;;;;;2.30;1.00;;;20.30;21.30;;;;;;4981297;28;21095;-76
2022/05/29 15:03:19;;;;;;;5.90;1.10;;;20.10;19.30;;;;;;4991886;28;20477;-78
2022/05/29 15:06:05;;;;;;;3.27;1.23;;;20.10;21.10;;;;;;4991971;28;20509;-78
2022/05/29 15:11:55;;;;;;;3.10;1.17;;;19.60;21.30;;;;;;4990209;28;20501;-77
2022/05/29 15:14:40;;;;;;;2.83;1.03;;;19.90;19.20;;;;;;4989152;28;20442;-77
2022/05/29 15:17:27;;;;;;;3.50;0.80;;;20.00;19.90;;;;;;4988759;28;20982;-77
2022/05/29 15:26:26;;;;;;;2.70;1.07;;;19.90;18.50;;;;;;4988098;28;20471;-77
2022/05/29 15:29:17;;;;;;;2.93;1.07;;;19.90;18.80;;;;;;4992821;28;20449;-78
2022/05/29 15:32:06;;;;;;;2.63;1.10;;;20.20;19.00;;;;;;4987923;28;20458;-78
2022/05/29 15:35:10;;;;;;;3.90;1.40;;;20.00;18.30;;;;;;4992836;28;20466;-78
2022/05/29 15:38:06;;;;;;;2.90;1.07;;;19.70;19.10;;;;;;4983842;28;20633;-77